Airport View

Enter AWOS ICAO identifier for current METAR.

ex. KFNL

KBIF 051258Z AUTO 11007KT 9SM FEW200 25/10 A3004 RMK AO2 SLP097 T02490104 $

5 Aug 2020 13:25

Other Area AWOS: KELP - MMCS - KDNA - K5T6

TAF KBIF 050603Z 0506/0612 22012KT 9999 BKN120 QNH2996INS TEMPO 0521/0610 19015KT VCTS OVC090CB BECMG 0611/0612 18010G20KT 9999 SCT130 QNH2998INS TX38/0520Z TN20/0512Z